Time;durP1;ratioP1;P1;durP2;ratioP2;P2;SDS_P1;SDS_P2;PMS_P1;PMS_P2;Temp;Humidity;BMP_temperature;BMP_pressure;BME280_temperature;BME280_humidity;BME280_pressure;Samples;Min_cycle;Max_cycle;Signal;HPM_P1;HPM_P2
2022/05/04 00:01:29;;;;;;;;;;;;;;;;;;4986757;28;130051;-63
2022/05/04 00:03:55;;;;;;;;;;;;;;;;;;4985935;28;115832;-63
2022/05/04 00:06:22;;;;;;;;;;;;;;;;;;4983575;28;129023;-64
2022/05/04 00:08:48;;;;;;;;;;;;;;;;;;4982202;28;136708;-64
2022/05/04 00:11:14;;;;;;;;;;;;;;;;;;4988366;28;135353;-64
2022/05/04 00:13:41;;;;;;;;;;;;;;;;;;4980327;28;129003;-63
2022/05/04 00:16:07;;;;;;;;;;;;;;;;;;4983709;28;135310;-64
2022/05/04 00:18:33;;;;;;;;;;;;;;;;;;4988994;28;122876;-65
2022/05/04 00:20:59;;;;;;;;;;;;;;;;;;4976115;28;128089;-65
2022/05/04 00:23:26;;;;;;;;;;;;;;;;;;4981615;28;135946;-65
2022/05/04 00:25:52;;;;;;;;;;;;;;;;;;4989163;28;137927;-63
2022/05/04 00:28:18;;;;;;;;;;;;;;;;;;4979541;28;135122;-65
2022/05/04 00:30:45;;;;;;;;;;;;;;;;;;4984967;28;107597;-64
2022/05/04 00:33:11;;;;;;;;;;;;;;;;;;4983746;28;127735;-64
2022/05/04 00:35:37;;;;;;;;;;;;;;;;;;4989626;28;134919;-64
2022/05/04 00:38:04;;;;;;;;;;;;;;;;;;4975180;28;135730;-64
2022/05/04 00:40:30;;;;;;;;;;;;;;;;;;4984987;28;106571;-62
2022/05/04 00:42:56;;;;;;;;;;;;;;;;;;4983096;28;134145;-63
2022/05/04 00:45:23;;;;;;;;;;;;;;;;;;4983714;28;137503;-64
2022/05/04 00:47:49;;;;;;;;;;;;;;;;;;4984748;28;111642;-63
2022/05/04 00:50:15;;;;;;;;;;;;;;;;;;4989109;28;125743;-63
2022/05/04 00:52:41;;;;;;;;;;;;;;;;;;4979781;28;127904;-64
2022/05/04 00:55:08;;;;;;;;;;;;;;;;;;4983952;28;118298;-64
2022/05/04 01:00:19;;;;;;;;;;;;;;;;;;4983188;28;127245;-63
2022/05/04 01:02:45;;;;;;;;;;;;;;;;;;4980528;28;134964;-63
2022/05/04 01:05:11;;;;;;;;;;;;;;;;;;4953288;22;108441;-65
2022/05/04 01:07:38;;;;;;;;;;;;;;;;;;4929611;28;128737;-66
2022/05/04 01:10:04;;;;;;;;;;;;;;;;;;4925322;28;134242;-66
2022/05/04 01:12:31;;;;;;;;;;;;;;;;;;4927854;28;128657;-65
2022/05/04 01:14:58;;;;;;;;;;;;;;;;;;4925059;28;136690;-65
2022/05/04 01:17:24;;;;;;;;;;;;;;;;;;4929448;28;106719;-65
2022/05/04 01:19:50;;;;;;;;;;;;;;;;;;4935832;28;129864;-67
2022/05/04 01:22:17;;;;;;;;;;;;;;;;;;4931297;28;132457;-66
2022/05/04 01:24:43;;;;;;;;;;;;;;;;;;4929336;28;137073;-66
2022/05/04 01:27:09;;;;;;;;;;;;;;;;;;4926478;28;106886;-67
2022/05/04 01:29:36;;;;;;;;;;;;;;;;;;4933332;28;106709;-66
2022/05/04 01:32:02;;;;;;;;;;;;;;;;;;4926560;28;106561;-66
2022/05/04 01:34:28;;;;;;;;;;;;;;;;;;4930004;28;136529;-66
2022/05/04 01:36:54;;;;;;;;;;;;;;;;;;4926652;28;137088;-66
2022/05/04 01:39:21;;;;;;;;;;;;;;;;;;4928895;28;114319;-66
2022/05/04 01:42:02;;;;;;;;;;;;;;;;;;4922656;28;106825;-69
2022/05/04 01:44:29;;;;;;;;;;;;;;;;;;4921671;28;138344;-66
2022/05/04 01:46:55;;;;;;;;;;;;;;;;;;4926256;28;129212;-65
2022/05/04 01:49:21;;;;;;;;;;;;;;;;;;4934565;28;122209;-66
2022/05/04 01:51:48;;;;;;;;;;;;;;;;;;4909487;28;138120;-65
2022/05/04 01:54:14;;;;;;;;;;;;;;;;;;4923744;28;133350;-66
2022/05/04 01:56:40;;;;;;;;;;;;;;;;;;4933362;28;109878;-65
2022/05/04 01:59:06;;;;;;;;;;;;;;;;;;4919574;28;129172;-67
2022/05/04 02:01:33;;;;;;;;;;;;;;;;;;4913850;28;137033;-66
2022/05/04 02:03:59;;;;;;;;;;;;;;;;;;4919679;28;110310;-66
2022/05/04 02:06:25;;;;;;;;;;;;;;;;;;4933735;28;130023;-68
2022/05/04 02:08:52;;;;;;;;;;;;;;;;;;4923955;28;124782;-67
2022/05/04 02:11:18;;;;;;;;;;;;;;;;;;4925666;28;138055;-66
2022/05/04 02:13:44;;;;;;;;;;;;;;;;;;4930378;28;128023;-66
2022/05/04 02:16:11;;;;;;;;;;;;;;;;;;4917539;28;122213;-66
2022/05/04 02:18:37;;;;;;;;;;;;;;;;;;4927390;28;128555;-66
2022/05/04 02:21:03;;;;;;;;;;;;;;;;;;4908849;28;136264;-65
2022/05/04 02:23:29;;;;;;;;;;;;;;;;;;4935716;28;134917;-66
2022/05/04 02:25:56;;;;;;;;;;;;;;;;;;4929053;28;127804;-66
2022/05/04 02:28:22;;;;;;;;;;;;;;;;;;4926315;28;110605;-66
2022/05/04 02:30:48;;;;;;;;;;;;;;;;;;4924936;28;135765;-66
2022/05/04 02:33:15;;;;;;;;;;;;;;;;;;4928387;28;116598;-66
2022/05/04 02:38:30;;;;;;;;;;;;;;;;;;4933756;28;112696;-66
2022/05/04 02:40:57;;;;;;;;;;;;;;;;;;4929381;28;119792;-65
2022/05/04 02:43:25;;;;;;;;;;;;;;;;;;4922533;28;137044;-65
2022/05/04 02:45:51;;;;;;;;;;;;;;;;;;4926481;28;106188;-66
2022/05/04 02:48:17;;;;;;;;;;;;;;;;;;4932748;28;136394;-65
2022/05/04 02:50:44;;;;;;;;;;;;;;;;;;4920449;28;135680;-65
2022/05/04 02:53:10;;;;;;;;;;;;;;;;;;4919301;28;106325;-65
2022/05/04 02:55:36;;;;;;;;;;;;;;;;;;4932095;28;137248;-65
2022/05/04 02:58:03;;;;;;;;;;;;;;;;;;4924026;28;129159;-65
2022/05/04 03:00:29;;;;;;;;;;;;;;;;;;4923260;28;124691;-65
2022/05/04 03:02:55;;;;;;;;;;;;;;;;;;4926958;28;108580;-65
2022/05/04 03:05:21;;;;;;;;;;;;;;;;;;4933707;28;128063;-66
2022/05/04 03:07:48;;;;;;;;;;;;;;;;;;4924040;28;130184;-65
2022/05/04 03:10:14;;;;;;;;;;;;;;;;;;4924348;28;137090;-67
2022/05/04 03:12:40;;;;;;;;;;;;;;;;;;4918467;28;109647;-65
2022/05/04 03:15:07;;;;;;;;;;;;;;;;;;4927327;28;106805;-65
2022/05/04 03:17:33;;;;;;;;;;;;;;;;;;4921552;28;135709;-66
2022/05/04 03:20:00;;;;;;;;;;;;;;;;;;4929012;28;130895;-66
2022/05/04 03:22:26;;;;;;;;;;;;;;;;;;4927375;28;128709;-66
2022/05/04 03:24:52;;;;;;;;;;;;;;;;;;4925306;28;129189;-66
2022/05/04 03:27:19;;;;;;;;;;;;;;;;;;4918780;28;136395;-65
2022/05/04 03:29:45;;;;;;;;;;;;;;;;;;4932134;28;107545;-66
2022/05/04 03:32:11;;;;;;;;;;;;;;;;;;4918565;28;129137;-66
2022/05/04 03:34:38;;;;;;;;;;;;;;;;;;4924740;28;137547;-66
2022/05/04 03:37:04;;;;;;;;;;;;;;;;;;4929828;28;137594;-65
2022/05/04 03:39:30;;;;;;;;;;;;;;;;;;4929370;28;129145;-66
2022/05/04 03:41:56;;;;;;;;;;;;;;;;;;4925255;28;137453;-66
2022/05/04 03:44:23;;;;;;;;;;;;;;;;;;4925339;28;129274;-65
2022/05/04 03:46:49;;;;;;;;;;;;;;;;;;4923836;28;135095;-66
2022/05/04 03:49:15;;;;;;;;;;;;;;;;;;4926607;28;137422;-67
2022/05/04 03:51:42;;;;;;;;;;;;;;;;;;4918030;28;127521;-66
2022/05/04 03:54:08;;;;;;;;;;;;;;;;;;4926949;28;133743;-66
2022/05/04 03:56:34;;;;;;;;;;;;;;;;;;4919025;28;137414;-65
2022/05/04 03:59:00;;;;;;;;;;;;;;;;;;4924820;28;130072;-66
2022/05/04 04:01:27;;;;;;;;;;;;;;;;;;4929653;28;137009;-66
2022/05/04 04:03:53;;;;;;;;;;;;;;;;;;4924529;28;127022;-66
2022/05/04 04:06:19;;;;;;;;;;;;;;;;;;4918401;28;135394;-66
2022/05/04 04:08:47;;;;;;;;;;;;;;;;;;4921188;28;137424;-67
2022/05/04 04:11:13;;;;;;;;;;;;;;;;;;4931085;28;128298;-65
2022/05/04 04:13:39;;;;;;;;;;;;;;;;;;4924183;28;138273;-65
2022/05/04 04:16:06;;;;;;;;;;;;;;;;;;4930658;28;111968;-66
2022/05/04 04:18:32;;;;;;;;;;;;;;;;;;4927718;28;129080;-65
2022/05/04 04:23:43;;;;;;;;;;;;;;;;;;4923099;28;138184;-66
2022/05/04 04:26:09;;;;;;;;;;;;;;;;;;4921202;28;136463;-66
2022/05/04 04:28:36;;;;;;;;;;;;;;;;;;4926744;28;136059;-66
2022/05/04 04:31:02;;;;;;;;;;;;;;;;;;4930334;28;123448;-66
2022/05/04 04:33:29;;;;;;;;;;;;;;;;;;4907472;28;135225;-67
2022/05/04 04:35:55;;;;;;;;;;;;;;;;;;4929093;28;134278;-66
2022/05/04 04:38:21;;;;;;;;;;;;;;;;;;4925750;28;122840;-65
2022/05/04 04:40:48;;;;;;;;;;;;;;;;;;4927356;28;137607;-66
2022/05/04 04:43:14;;;;;;;;;;;;;;;;;;4924688;28;120752;-66
2022/05/04 04:45:40;;;;;;;;;;;;;;;;;;4935811;28;129305;-66
2022/05/04 04:48:07;;;;;;;;;;;;;;;;;;4924191;28;135559;-67
2022/05/04 04:50:33;;;;;;;;;;;;;;;;;;4928505;28;131019;-66
2022/05/04 04:52:59;;;;;;;;;;;;;;;;;;4929219;28;136573;-66
2022/05/04 04:55:26;;;;;;;;;;;;;;;;;;4926801;28;113177;-66
2022/05/04 04:57:52;;;;;;;;;;;;;;;;;;4927015;28;129014;-66
2022/05/04 05:00:20;;;;;;;;;;;;;;;;;;4932314;28;134160;-65
2022/05/04 05:02:46;;;;;;;;;;;;;;;;;;4917754;28;136574;-66
2022/05/04 05:05:12;;;;;;;;;;;;;;;;;;4930298;28;127188;-66
2022/05/04 05:07:38;;;;;;;;;;;;;;;;;;4928766;28;138062;-66
2022/05/04 05:10:05;;;;;;;;;;;;;;;;;;4919869;28;129381;-66
2022/05/04 05:12:32;;;;;;;;;;;;;;;;;;4927335;28;137436;-66
2022/05/04 05:17:43;;;;;;;;;;;;;;;;;;4922713;28;127913;-66
2022/05/04 05:20:09;;;;;;;;;;;;;;;;;;4930827;28;121049;-66
2022/05/04 05:22:35;;;;;;;;;;;;;;;;;;4924763;28;134169;-66
2022/05/04 05:25:02;;;;;;;;;;;;;;;;;;4931185;28;129060;-67
2022/05/04 05:27:28;;;;;;;;;;;;;;;;;;4925148;28;135157;-67
2022/05/04 05:29:54;;;;;;;;;;;;;;;;;;4928929;28;128428;-66
2022/05/04 05:32:20;;;;;;;;;;;;;;;;;;4922215;28;134254;-66
2022/05/04 05:34:47;;;;;;;;;;;;;;;;;;4927946;28;137298;-66
2022/05/04 05:37:13;;;;;;;;;;;;;;;;;;4929797;28;130709;-67
2022/05/04 05:39:39;;;;;;;;;;;;;;;;;;4927520;28;135998;-66
2022/05/04 05:42:06;;;;;;;;;;;;;;;;;;4926131;28;132016;-66
2022/05/04 05:44:32;;;;;;;;;;;;;;;;;;4927815;28;127924;-66
2022/05/04 05:47:03;;;;;;;;;;;;;;;;;;4928570;28;135963;-66
2022/05/04 05:49:29;;;;;;;;;;;;;;;;;;4924350;28;136067;-66
2022/05/04 05:51:55;;;;;;;;;;;;;;;;;;4928606;28;137181;-66
2022/05/04 05:54:21;;;;;;;;;;;;;;;;;;4925351;28;137507;-65
2022/05/04 05:56:48;;;;;;;;;;;;;;;;;;4928202;28;130085;-66
2022/05/04 05:59:14;;;;;;;;;;;;;;;;;;4926405;28;135243;-66
2022/05/04 06:01:41;;;;;;;;;;;;;;;;;;4928277;28;135148;-66
2022/05/04 06:04:08;;;;;;;;;;;;;;;;;;4923391;28;105946;-66
2022/05/04 06:06:34;;;;;;;;;;;;;;;;;;4910676;28;137082;-68
2022/05/04 06:09:00;;;;;;;;;;;;;;;;;;4911187;28;135425;-66
2022/05/04 06:11:27;;;;;;;;;;;;;;;;;;4909217;28;106604;-66
2022/05/04 06:13:53;;;;;;;;;;;;;;;;;;4913671;28;135907;-64
2022/05/04 06:16:19;;;;;;;;;;;;;;;;;;4913840;28;129695;-67
2022/05/04 06:18:46;;;;;;;;;;;;;;;;;;4912632;28;136389;-65
2022/05/04 06:21:12;;;;;;;;;;;;;;;;;;4911224;28;120338;-66
2022/05/04 06:23:38;;;;;;;;;;;;;;;;;;4907546;28;129155;-67
2022/05/04 06:26:05;;;;;;;;;;;;;;;;;;4903984;28;136748;-67
2022/05/04 06:28:31;;;;;;;;;;;;;;;;;;4910823;28;132658;-67
2022/05/04 06:36:28;;;;;;;;;;;;;;;;;;4900231;28;129874;-68
2022/05/04 06:38:54;;;;;;;;;;;;;;;;;;4901577;28;136439;-68
2022/05/04 06:41:20;;;;;;;;;;;;;;;;;;4902849;28;129982;-65
2022/05/04 06:43:47;;;;;;;;;;;;;;;;;;4893855;28;127598;-65
2022/05/04 06:46:14;;;;;;;;;;;;;;;;;;4906265;28;137446;-65
2022/05/04 06:48:40;;;;;;;;;;;;;;;;;;4902238;28;125035;-70
2022/05/04 06:51:06;;;;;;;;;;;;;;;;;;4907759;28;128871;-70
2022/05/04 06:53:33;;;;;;;;;;;;;;;;;;4897624;28;135867;-66
2022/05/04 06:55:59;;;;;;;;;;;;;;;;;;4913168;28;106161;-67
2022/05/04 06:58:25;;;;;;;;;;;;;;;;;;4900585;28;123111;-67
2022/05/04 07:00:52;;;;;;;;;;;;;;;;;;4904870;28;136569;-67
2022/05/04 07:03:19;;;;;;;;;;;;;;;;;;4915809;28;129056;-68
2022/05/04 07:05:46;;;;;;;;;;;;;;;;;;4918436;28;136231;-71
2022/05/04 07:08:12;;;;;;;;;;;;;;;;;;4923907;28;135666;-68
2022/05/04 07:10:38;;;;;;;;;;;;;;;;;;4925809;28;107973;-67
2022/05/04 07:13:06;;;;;;;;;;;;;;;;;;4922465;28;130294;-67
2022/05/04 07:15:32;;;;;;;;;;;;;;;;;;4928030;28;137094;-67
2022/05/04 07:17:59;;;;;;;;;;;;;;;;;;4924362;28;106795;-67
2022/05/04 07:20:26;;;;;;;;;;;;;;;;;;4917150;28;136838;-68
2022/05/04 07:22:52;;;;;;;;;;;;;;;;;;4921887;28;129960;-67
2022/05/04 07:25:19;;;;;;;;;;;;;;;;;;4924122;28;135069;-66
2022/05/04 07:27:45;;;;;;;;;;;;;;;;;;4925137;28;137980;-66
2022/05/04 07:30:11;;;;;;;;;;;;;;;;;;4919016;28;130223;-66
2022/05/04 07:32:37;;;;;;;;;;;;;;;;;;4923670;28;117347;-65
2022/05/04 07:35:05;;;;;;;;;;;;;;;;;;4924309;28;136424;-67
2022/05/04 07:37:31;;;;;;;;;;;;;;;;;;4930140;28;106570;-67
2022/05/04 07:42:47;;;;;;;;;;;;;;;;;;4916272;28;129641;-66
2022/05/04 07:45:15;;;;;;;;;;;;;;;;;;4925803;28;135871;-67
2022/05/04 07:47:41;;;;;;;;;;;;;;;;;;4928064;28;134763;-66
2022/05/04 07:50:08;;;;;;;;;;;;;;;;;;4918904;28;129531;-67
2022/05/04 07:52:34;;;;;;;;;;;;;;;;;;4923629;28;107640;-71
2022/05/04 07:55:00;;;;;;;;;;;;;;;;;;4926962;28;137206;-70
2022/05/04 07:57:27;;;;;;;;;;;;;;;;;;4913828;28;122021;-70
2022/05/04 08:05:24;;;;;;;;;;;;;;;;;;4938182;28;135000;-71
2022/05/04 08:07:50;;;;;;;;;;;;;;;;;;4935634;28;136063;-72
2022/05/04 08:10:16;;;;;;;;;;;;;;;;;;4921954;28;107135;-72
2022/05/04 08:12:43;;;;;;;;;;;;;;;;;;4921682;28;135028;-73
2022/05/04 08:15:09;;;;;;;;;;;;;;;;;;4923299;28;137164;-72
2022/05/04 08:17:35;;;;;;;;;;;;;;;;;;4922550;28;127981;-73
2022/05/04 08:20:01;;;;;;;;;;;;;;;;;;4940850;28;134288;-71
2022/05/04 08:22:28;;;;;;;;;;;;;;;;;;4926091;28;137182;-73
2022/05/04 08:24:54;;;;;;;;;;;;;;;;;;4930141;28;135586;-74
2022/05/04 08:27:20;;;;;;;;;;;;;;;;;;4921775;28;136885;-73
2022/05/04 08:29:46;;;;;;;;;;;;;;;;;;4923801;28;129413;-73
2022/05/04 08:32:13;;;;;;;;;;;;;;;;;;4920965;28;136212;-73
2022/05/04 08:34:39;;;;;;;;;;;;;;;;;;4930014;28;136464;-74
2022/05/04 08:37:06;;;;;;;;;;;;;;;;;;4929065;28;125742;-71
2022/05/04 08:39:32;;;;;;;;;;;;;;;;;;4922496;28;133809;-72
2022/05/04 08:42:00;;;;;;;;;;;;;;;;;;4923753;28;135731;-72
2022/05/04 08:44:26;;;;;;;;;;;;;;;;;;4923071;28;117289;-71
2022/05/04 08:46:53;;;;;;;;;;;;;;;;;;4925246;28;126351;-72
2022/05/04 08:49:19;;;;;;;;;;;;;;;;;;4935150;28;118893;-70
2022/05/04 08:51:48;;;;;;;;;;;;;;;;;;4920900;28;137271;-70
2022/05/04 08:54:14;;;;;;;;;;;;;;;;;;4928209;28;137834;-70
2022/05/04 08:56:40;;;;;;;;;;;;;;;;;;4923357;28;109671;-68
2022/05/04 08:59:06;;;;;;;;;;;;;;;;;;4930776;28;137005;-69
2022/05/04 09:01:33;;;;;;;;;;;;;;;;;;4931823;28;137057;-67
2022/05/04 09:03:59;;;;;;;;;;;;;;;;;;4941685;28;117847;-69
2022/05/04 09:06:26;;;;;;;;;;;;;;;;;;4909366;28;138487;-69
2022/05/04 09:08:52;;;;;;;;;;;;;;;;;;4899915;28;114542;-70
2022/05/04 09:11:18;;;;;;;;;;;;;;;;;;4908293;28;137029;-69
2022/05/04 09:13:45;;;;;;;;;;;;;;;;;;4903425;28;107239;-69
2022/05/04 09:16:11;;;;;;;;;;;;;;;;;;4915603;28;127938;-70
2022/05/04 09:18:37;;;;;;;;;;;;;;;;;;4905908;28;135336;-69
2022/05/04 09:21:04;;;;;;;;;;;;;;;;;;4904037;28;137665;-70
2022/05/04 09:23:31;;;;;;;;;;;;;;;;;;4902657;28;125531;-69
2022/05/04 09:25:57;;;;;;;;;;;;;;;;;;4911409;28;136607;-69
2022/05/04 09:28:26;;;;;;;;;;;;;;;;;;4904455;28;128707;-69
2022/05/04 09:30:52;;;;;;;;;;;;;;;;;;4898126;28;135272;-69
2022/05/04 09:33:19;;;;;;;;;;;;;;;;;;4903473;28;135915;-70
2022/05/04 09:35:45;;;;;;;;;;;;;;;;;;4904341;28;123298;-70
2022/05/04 09:46:27;;;;;;;;;;;;;;;;;;4905699;28;136571;-71
2022/05/04 09:48:53;;;;;;;;;;;;;;;;;;4912618;28;135782;-69
2022/05/04 09:51:23;;;;;;;;;;;;;;;;;;4897136;28;130765;-69
2022/05/04 09:53:50;;;;;;;;;;;;;;;;;;4937986;28;108894;-69
2022/05/04 09:56:16;;;;;;;;;;;;;;;;;;4921606;28;130578;-70
2022/05/04 09:58:43;;;;;;;;;;;;;;;;;;4907986;28;135744;-71
2022/05/04 10:01:09;;;;;;;;;;;;;;;;;;4902225;28;119040;-71
2022/05/04 10:03:35;;;;;;;;;;;;;;;;;;4901241;28;129853;-70
2022/05/04 10:06:02;;;;;;;;;;;;;;;;;;4928298;28;135327;-72
2022/05/04 10:08:28;;;;;;;;;;;;;;;;;;4924016;28;136406;-71
2022/05/04 10:10:55;;;;;;;;;;;;;;;;;;4928367;28;129011;-70
2022/05/04 10:13:21;;;;;;;;;;;;;;;;;;4926040;28;136945;-70
2022/05/04 10:15:48;;;;;;;;;;;;;;;;;;4932723;28;129367;-70
2022/05/04 10:18:14;;;;;;;;;;;;;;;;;;4927126;28;137329;-71
2022/05/04 10:20:40;;;;;;;;;;;;;;;;;;4928483;28;135712;-70
2022/05/04 10:23:07;;;;;;;;;;;;;;;;;;4925184;28;126341;-70
2022/05/04 10:25:34;;;;;;;;;;;;;;;;;;4929116;28;108541;-69
2022/05/04 10:28:00;;;;;;;;;;;;;;;;;;4924575;28;116591;-71
2022/05/04 10:30:34;;;;;;;;;;;;;;;;;;4923812;28;129424;-72
2022/05/04 10:33:01;;;;;;;;;;;;;;;;;;4932187;28;125806;-69
2022/05/04 10:35:27;;;;;;;;;;;;;;;;;;4924576;28;128756;-71
2022/05/04 10:37:54;;;;;;;;;;;;;;;;;;4927673;28;136503;-71
2022/05/04 10:40:20;;;;;;;;;;;;;;;;;;4917898;28;111331;-71
2022/05/04 10:42:47;;;;;;;;;;;;;;;;;;4922068;28;129309;-71
2022/05/04 10:45:13;;;;;;;;;;;;;;;;;;4925112;28;136690;-71
2022/05/04 10:47:39;;;;;;;;;;;;;;;;;;4908111;28;137947;-70
2022/05/04 10:50:06;;;;;;;;;;;;;;;;;;4926962;28;125307;-71
2022/05/04 10:52:32;;;;;;;;;;;;;;;;;;4933681;28;136245;-71
2022/05/04 10:54:59;;;;;;;;;;;;;;;;;;4929837;28;136227;-72
2022/05/04 10:57:25;;;;;;;;;;;;;;;;;;4922541;28;133341;-70
2022/05/04 10:59:51;;;;;;;;;;;;;;;;;;4924385;28;120070;-70
2022/05/04 11:02:19;;;;;;;;;;;;;;;;;;4924841;28;106230;-71
2022/05/04 11:04:46;;;;;;;;;;;;;;;;;;4917919;28;117860;-71
2022/05/04 11:07:12;;;;;;;;;;;;;;;;;;4926890;28;135496;-70
2022/05/04 11:09:40;;;;;;;;;;;;;;;;;;4913251;28;127841;-72
2022/05/04 11:12:06;;;;;;;;;;;;;;;;;;4922724;28;136080;-70
2022/05/04 11:14:34;;;;;;;;;;;;;;;;;;4927439;28;117340;-70
2022/05/04 11:17:00;;;;;;;;;;;;;;;;;;4920455;28;135527;-71
2022/05/04 11:19:26;;;;;;;;;;;;;;;;;;4922499;28;135805;-69
2022/05/04 11:21:53;;;;;;;;;;;;;;;;;;4921481;28;129496;-70
2022/05/04 11:24:19;;;;;;;;;;;;;;;;;;4917130;28;127876;-72
2022/05/04 11:26:45;;;;;;;;;;;;;;;;;;4922767;28;107683;-70
2022/05/04 11:29:11;;;;;;;;;;;;;;;;;;4922702;28;128607;-71
2022/05/04 11:31:38;;;;;;;;;;;;;;;;;;4924493;28;120975;-70
2022/05/04 11:34:04;;;;;;;;;;;;;;;;;;4915218;28;137977;-69
2022/05/04 11:36:30;;;;;;;;;;;;;;;;;;4921236;28;127926;-69
2022/05/04 11:38:57;;;;;;;;;;;;;;;;;;4916590;28;137375;-70
2022/05/04 11:41:23;;;;;;;;;;;;;;;;;;4916825;28;129552;-71
2022/05/04 11:43:50;;;;;;;;;;;;;;;;;;4919348;28;124727;-70
2022/05/04 11:46:16;;;;;;;;;;;;;;;;;;4925486;28;135568;-70
2022/05/04 11:48:43;;;;;;;;;;;;;;;;;;4919802;28;129041;-70
2022/05/04 11:51:09;;;;;;;;;;;;;;;;;;4922809;28;135676;-70
2022/05/04 11:53:35;;;;;;;;;;;;;;;;;;4926511;28;107783;-70
2022/05/04 11:56:03;;;;;;;;;;;;;;;;;;4918108;28;129217;-70
2022/05/04 11:58:29;;;;;;;;;;;;;;;;;;4928004;28;137516;-70
2022/05/04 12:00:56;;;;;;;;;;;;;;;;;;4927909;28;106489;-69
2022/05/04 12:03:23;;;;;;;;;;;;;;;;;;4919620;28;109751;-68
2022/05/04 12:05:50;;;;;;;;;;;;;;;;;;4920680;28;136590;-71
2022/05/04 12:08:17;;;;;;;;;;;;;;;;;;4923438;28;129838;-71
2022/05/04 12:10:43;;;;;;;;;;;;;;;;;;4917757;28;137026;-70
2022/05/04 12:13:09;;;;;;;;;;;;;;;;;;4933617;28;136921;-70
2022/05/04 12:15:37;;;;;;;;;;;;;;;;;;4925412;28;122208;-70
2022/05/04 12:18:03;;;;;;;;;;;;;;;;;;4921019;28;136474;-71
2022/05/04 12:20:31;;;;;;;;;;;;;;;;;;4923404;28;106250;-69
2022/05/04 12:22:57;;;;;;;;;;;;;;;;;;4914559;28;133444;-71
2022/05/04 12:25:24;;;;;;;;;;;;;;;;;;4921653;28;138554;-68
2022/05/04 12:27:50;;;;;;;;;;;;;;;;;;4925510;28;123552;-68
2022/05/04 12:33:13;;;;;;;;;;;;;;;;;;4923343;28;137341;-72
2022/05/04 12:35:41;;;;;;;;;;;;;;;;;;4913701;28;130993;-71
2022/05/04 12:38:07;;;;;;;;;;;;;;;;;;4915455;28;135216;-72
2022/05/04 12:40:34;;;;;;;;;;;;;;;;;;4916109;28;137221;-72
2022/05/04 12:43:00;;;;;;;;;;;;;;;;;;4931665;28;115546;-71
2022/05/04 12:45:27;;;;;;;;;;;;;;;;;;4919205;28;137335;-71
2022/05/04 12:47:53;;;;;;;;;;;;;;;;;;4903988;28;129660;-71
2022/05/04 12:50:20;;;;;;;;;;;;;;;;;;4928608;28;135990;-71
2022/05/04 12:52:46;;;;;;;;;;;;;;;;;;4921536;28;136140;-72
2022/05/04 12:55:12;;;;;;;;;;;;;;;;;;4916860;28;129221;-71
2022/05/04 12:57:39;;;;;;;;;;;;;;;;;;4926986;28;112986;-72
2022/05/04 13:00:05;;;;;;;;;;;;;;;;;;4926342;28;136548;-70
2022/05/04 13:02:31;;;;;;;;;;;;;;;;;;4928693;28;129192;-71
2022/05/04 13:04:57;;;;;;;;;;;;;;;;;;4927761;28;137209;-71
2022/05/04 13:07:24;;;;;;;;;;;;;;;;;;4927000;28;130390;-72
2022/05/04 13:09:54;;;;;;;;;;;;;;;;;;4922650;28;137493;-69
2022/05/04 13:12:21;;;;;;;;;;;;;;;;;;4923875;28;135861;-70
2022/05/04 13:14:47;;;;;;;;;;;;;;;;;;4925143;28;126754;-70
2022/05/04 13:17:13;;;;;;;;;;;;;;;;;;4923271;28;137181;-71
2022/05/04 13:19:40;;;;;;;;;;;;;;;;;;4925366;28;136651;-69
2022/05/04 13:22:06;;;;;;;;;;;;;;;;;;4918921;28;114310;-72
2022/05/04 13:24:32;;;;;;;;;;;;;;;;;;4921911;28;134087;-72
2022/05/04 13:26:59;;;;;;;;;;;;;;;;;;4917987;28;109634;-72
2022/05/04 13:29:25;;;;;;;;;;;;;;;;;;4924289;28;136678;-69
2022/05/04 13:31:51;;;;;;;;;;;;;;;;;;4921311;28;108911;-70
2022/05/04 13:34:18;;;;;;;;;;;;;;;;;;4920262;28;128560;-69
2022/05/04 13:36:44;;;;;;;;;;;;;;;;;;4918837;28;136481;-68
2022/05/04 13:39:10;;;;;;;;;;;;;;;;;;4918828;28;117325;-69
2022/05/04 13:41:37;;;;;;;;;;;;;;;;;;4916761;28;108910;-73
2022/05/04 13:44:03;;;;;;;;;;;;;;;;;;4914614;28;134134;-69
2022/05/04 13:46:30;;;;;;;;;;;;;;;;;;4929224;28;110741;-69
2022/05/04 13:48:57;;;;;;;;;;;;;;;;;;4923968;28;135678;-69
2022/05/04 13:54:08;;;;;;;;;;;;;;;;;;4923226;28;129835;-70
2022/05/04 13:56:35;;;;;;;;;;;;;;;;;;4917369;28;135262;-70
2022/05/04 13:59:01;;;;;;;;;;;;;;;;;;4918294;28;137235;-67
2022/05/04 14:01:31;;;;;;;;;;;;;;;;;;4923464;28;127229;-69
2022/05/04 14:03:57;;;;;;;;;;;;;;;;;;4923894;28;136764;-69
2022/05/04 14:06:23;;;;;;;;;;;;;;;;;;4923524;28;135933;-69
2022/05/04 14:08:50;;;;;;;;;;;;;;;;;;4930621;28;127995;-69
2022/05/04 14:11:18;;;;;;;;;;;;;;;;;;4919747;28;127218;-71
2022/05/04 14:13:45;;;;;;;;;;;;;;;;;;4923903;28;131420;-71
2022/05/04 14:16:12;;;;;;;;;;;;;;;;;;4921070;28;136087;-70
2022/05/04 14:18:38;;;;;;;;;;;;;;;;;;4905282;28;134069;-70
2022/05/04 14:21:04;;;;;;;;;;;;;;;;;;4922758;28;129644;-68
2022/05/04 14:23:30;;;;;;;;;;;;;;;;;;4920673;28;137122;-69
2022/05/04 14:25:57;;;;;;;;;;;;;;;;;;4921174;28;136211;-71
2022/05/04 14:28:28;;;;;;;;;;;;;;;;;;4907574;28;130324;-70
2022/05/04 14:30:54;;;;;;;;;;;;;;;;;;4926939;28;136028;-68
2022/05/04 14:33:21;;;;;;;;;;;;;;;;;;4918341;28;107205;-68
2022/05/04 14:35:48;;;;;;;;;;;;;;;;;;4928810;28;106845;-67
2022/05/04 14:38:15;;;;;;;;;;;;;;;;;;4921359;28;135276;-67
2022/05/04 14:40:42;;;;;;;;;;;;;;;;;;4925570;28;128187;-67
2022/05/04 14:43:08;;;;;;;;;;;;;;;;;;4923196;28;121195;-67
2022/05/04 14:45:34;;;;;;;;;;;;;;;;;;4924761;28;136151;-67
2022/05/04 14:48:01;;;;;;;;;;;;;;;;;;4924911;28;129257;-67
2022/05/04 14:50:27;;;;;;;;;;;;;;;;;;4922726;28;112316;-67
2022/05/04 14:52:54;;;;;;;;;;;;;;;;;;4922342;28;107869;-68
2022/05/04 14:55:20;;;;;;;;;;;;;;;;;;4924298;28;108024;-69
2022/05/04 14:57:47;;;;;;;;;;;;;;;;;;4925180;28;137212;-69
2022/05/04 15:00:15;;;;;;;;;;;;;;;;;;4922619;28;128309;-68
2022/05/04 15:05:26;;;;;;;;;;;;;;;;;;4920530;28;134509;-67
2022/05/04 15:07:52;;;;;;;;;;;;;;;;;;4923045;28;128886;-66
2022/05/04 15:10:21;;;;;;;;;;;;;;;;;;4915435;28;107098;-67
2022/05/04 15:12:47;;;;;;;;;;;;;;;;;;4916240;28;135664;-66
2022/05/04 15:15:13;;;;;;;;;;;;;;;;;;4922280;28;129522;-66
2022/05/04 15:17:39;;;;;;;;;;;;;;;;;;4919064;28;137652;-67
2022/05/04 15:20:06;;;;;;;;;;;;;;;;;;4917602;28;129124;-67
2022/05/04 15:22:32;;;;;;;;;;;;;;;;;;4922094;28;134766;-67
2022/05/04 15:24:58;;;;;;;;;;;;;;;;;;4903959;28;136051;-68
2022/05/04 15:27:25;;;;;;;;;;;;;;;;;;4923714;28;130114;-67
2022/05/04 15:29:51;;;;;;;;;;;;;;;;;;4915719;28;137329;-66
2022/05/04 15:32:17;;;;;;;;;;;;;;;;;;4918931;28;116214;-67
2022/05/04 15:34:43;;;;;;;;;;;;;;;;;;4931201;28;111013;-67
2022/05/04 15:37:10;;;;;;;;;;;;;;;;;;4916677;28;136444;-67
2022/05/04 15:39:36;;;;;;;;;;;;;;;;;;4919800;28;128327;-67
2022/05/04 15:42:02;;;;;;;;;;;;;;;;;;4924737;28;135944;-67
2022/05/04 15:44:29;;;;;;;;;;;;;;;;;;4922998;28;109327;-73
2022/05/04 15:46:55;;;;;;;;;;;;;;;;;;4927965;28;108808;-67
2022/05/04 15:49:22;;;;;;;;;;;;;;;;;;4926085;28;135215;-68
2022/05/04 15:51:48;;;;;;;;;;;;;;;;;;4904072;28;116711;-67
2022/05/04 15:54:14;;;;;;;;;;;;;;;;;;4917355;28;130225;-68
2022/05/04 15:56:41;;;;;;;;;;;;;;;;;;4928452;28;133592;-69
2022/05/04 15:59:07;;;;;;;;;;;;;;;;;;4907292;28;129428;-68
2022/05/04 16:01:33;;;;;;;;;;;;;;;;;;4918970;28;138103;-67
2022/05/04 16:04:01;;;;;;;;;;;;;;;;;;4920111;28;136418;-67
2022/05/04 16:06:27;;;;;;;;;;;;;;;;;;4927964;28;108806;-68
2022/05/04 16:08:53;;;;;;;;;;;;;;;;;;4920132;28;136609;-68
2022/05/04 16:11:20;;;;;;;;;;;;;;;;;;4922440;28;135007;-66
2022/05/04 16:13:46;;;;;;;;;;;;;;;;;;4923549;28;128066;-68
2022/05/04 16:16:12;;;;;;;;;;;;;;;;;;4923057;28;136159;-68
2022/05/04 16:21:45;;;;;;;;;;;;;;;;;;4926592;28;137315;-68
2022/05/04 16:24:12;;;;;;;;;;;;;;;;;;4924569;28;137787;-68
2022/05/04 16:26:38;;;;;;;;;;;;;;;;;;4926519;28;109948;-67
2022/05/04 16:29:04;;;;;;;;;;;;;;;;;;4926831;28;130830;-67
2022/05/04 16:31:31;;;;;;;;;;;;;;;;;;4931358;28;119769;-67
2022/05/04 16:34:03;;;;;;;;;;;;;;;;;;4921778;28;129732;-67
2022/05/04 16:36:30;;;;;;;;;;;;;;;;;;4925051;28;124167;-67
2022/05/04 16:39:16;;;;;;;;;;;;;;;;;;4927450;28;107026;-67
2022/05/04 16:41:42;;;;;;;;;;;;;;;;;;4928731;28;126180;-67
2022/05/04 16:44:08;;;;;;;;;;;;;;;;;;4926699;28;116025;-68
2022/05/04 16:46:35;;;;;;;;;;;;;;;;;;4921201;28;124725;-68
2022/05/04 16:49:01;;;;;;;;;;;;;;;;;;4924185;28;107025;-68
2022/05/04 16:51:27;;;;;;;;;;;;;;;;;;4923320;28;131885;-67
2022/05/04 16:53:54;;;;;;;;;;;;;;;;;;4922342;28;129444;-67
2022/05/04 16:56:24;;;;;;;;;;;;;;;;;;4920197;28;125808;-67
2022/05/04 16:58:50;;;;;;;;;;;;;;;;;;4926050;28;137961;-66
2022/05/04 17:01:17;;;;;;;;;;;;;;;;;;4926795;28;112860;-67
2022/05/04 17:03:43;;;;;;;;;;;;;;;;;;4926594;28;135208;-67
2022/05/04 17:06:10;;;;;;;;;;;;;;;;;;4925696;28;109136;-67
2022/05/04 17:08:36;;;;;;;;;;;;;;;;;;4929153;28;109517;-67